MSC Maeva — H9TF — position and weather

sailwx.info

Track history (hours):
 
Tides and Currents Weather Stations Pressure Air Temp Water Temp Dewpoint Dewpoint Depression Visibility Wind Speed Wind Dir Waves Ship Positions

MSC Maeva

Last reported at 2016-May-06 10:32 UTC. Time now 2016-May-06 11:09 UTC.
Position N 40°41' W 074°09'.

Type: Ship (hazmat cat A). MMSI: 371851000.

Date/timePositionNaut miles runAvg speedWind from/ knotsBaromVisibWave heightAir tempDewpointWater temp
2016-May-06 10:32N 40°41' W 074°09'0 0.0
2016-May-06 09:32N 40°41' W 074°09'0 0.0
2016-May-06 08:32N 40°41' W 074°09'0 0.0
2016-May-06 07:23N 40°41' W 074°09'2 2.6
2016-May-06 06:34N 40°39' W 074°09'5 4.9
2016-May-06 05:33N 40°37' W 074°03'2 1.7
2016-May-06 04:31N 40°36' W 074°02'0 0.0
2016-May-06 03:31N 40°36' W 074°02'0 0.1
2016-May-06 02:31N 40°36' W 074°02'0 0.2
2016-May-06 01:34N 40°36' W 074°02'0 0.1
2016-May-05 23:33N 40°36' W 074°02'0 0.0
2016-May-05 22:33N 40°36' W 074°02'0 0.0
2016-May-05 21:15N 40°36' W 074°02'0 0.3
2016-May-05 20:34N 40°36' W 074°02'7 6.7
2016-May-05 19:33N 40°30' W 073°57'  
2016-Apr-28 04:10N 35°59' W 005°29'1016.1
2016-Apr-28 03:33N 36°02' W 005°18'21717.8
2016-Apr-27 15:19N 37°16' W 001°03'1519.2
2016-Apr-27 14:33N 37°25' W 000°48'1818.4
2016-Apr-27 13:33N 37°38' W 000°32'1918.6
2016-Apr-27 12:33N 37°52' W 000°17'9414.9
2016-Apr-27 06:16N 39°26' W 000°19'0 0.1
2016-Apr-27 04:29N 39°26' W 000°19'0 0.0
2016-Apr-27 03:33N 39°26' W 000°19'0 0.0
2016-Apr-27 01:33N 39°26' W 000°19'0 0.0
2016-Apr-27 00:33N 39°26' W 000°19'0 0.0
2016-Apr-26 23:33N 39°26' W 000°19'0 0.0
2016-Apr-26 22:33N 39°26' W 000°19'0 0.0
2016-Apr-26 21:25N 39°26' W 000°19'0 0.0
2016-Apr-26 20:29N 39°26' W 000°19'0 0.0
2016-Apr-26 19:30N 39°26' W 000°19'0 0.0
2016-Apr-26 18:33N 39°26' W 000°19'0 0.0
2016-Apr-26 17:31N 39°26' W 000°19'0 0.0
2016-Apr-26 16:33N 39°26' W 000°19'0 0.0
2016-Apr-26 15:33N 39°26' W 000°19'0 0.0
2016-Apr-26 14:33N 39°26' W 000°19'0 0.0
2016-Apr-26 13:33N 39°26' W 000°19'0 0.0
2016-Apr-26 12:33N 39°26' W 000°19'0 0.0
2016-Apr-26 11:33N 39°26' W 000°19'0 0.0
2016-Apr-26 10:33N 39°26' W 000°19'  
Track history (hours):
 
Tides and Currents Weather Stations Pressure Air Temp Water Temp Dewpoint Dewpoint Depression Visibility Wind Speed Wind Dir Waves Ship Positions

MSC Maeva

Last reported at 2016-May-06 10:32 UTC. Time now 2016-May-06 11:09 UTC.
Position N 40°41' W 074°09'.

Type: Ship (hazmat cat A). MMSI: 371851000.

Date/timePositionNaut miles runAvg speedWind from/ knotsBaromVisibWave heightAir tempDewpointWater temp
2016-May-06 10:32N 40°41' W 074°09'0 0.0
2016-May-06 09:32N 40°41' W 074°09'0 0.0
2016-May-06 08:32N 40°41' W 074°09'0 0.0
2016-May-06 07:23N 40°41' W 074°09'2 2.6
2016-May-06 06:34N 40°39' W 074°09'5 4.9
2016-May-06 05:33N 40°37' W 074°03'2 1.7
2016-May-06 04:31N 40°36' W 074°02'0 0.0
2016-May-06 03:31N 40°36' W 074°02'0 0.1
2016-May-06 02:31N 40°36' W 074°02'0 0.2
2016-May-06 01:34N 40°36' W 074°02'0 0.1
2016-May-05 23:33N 40°36' W 074°02'0 0.0
2016-May-05 22:33N 40°36' W 074°02'0 0.0
2016-May-05 21:15N 40°36' W 074°02'0 0.3
2016-May-05 20:34N 40°36' W 074°02'7 6.7
2016-May-05 19:33N 40°30' W 073°57'  
2016-Apr-28 04:10N 35°59' W 005°29'1016.1
2016-Apr-28 03:33N 36°02' W 005°18'21717.8
2016-Apr-27 15:19N 37°16' W 001°03'1519.2
2016-Apr-27 14:33N 37°25' W 000°48'1818.4
2016-Apr-27 13:33N 37°38' W 000°32'1918.6
2016-Apr-27 12:33N 37°52' W 000°17'9414.9
2016-Apr-27 06:16N 39°26' W 000°19'0 0.1
2016-Apr-27 04:29N 39°26' W 000°19'0 0.0
2016-Apr-27 03:33N 39°26' W 000°19'0 0.0
2016-Apr-27 01:33N 39°26' W 000°19'0 0.0
2016-Apr-27 00:33N 39°26' W 000°19'0 0.0
2016-Apr-26 23:33N 39°26' W 000°19'0 0.0
2016-Apr-26 22:33N 39°26' W 000°19'0 0.0
2016-Apr-26 21:25N 39°26' W 000°19'0 0.0
2016-Apr-26 20:29N 39°26' W 000°19'0 0.0
2016-Apr-26 19:30N 39°26' W 000°19'0 0.0
2016-Apr-26 18:33N 39°26' W 000°19'0 0.0
2016-Apr-26 17:31N 39°26' W 000°19'0 0.0
2016-Apr-26 16:33N 39°26' W 000°19'0 0.0
2016-Apr-26 15:33N 39°26' W 000°19'0 0.0
2016-Apr-26 14:33N 39°26' W 000°19'0 0.0
2016-Apr-26 13:33N 39°26' W 000°19'0 0.0
2016-Apr-26 12:33N 39°26' W 000°19'0 0.0
2016-Apr-26 11:33N 39°26' W 000°19'0 0.0
2016-Apr-26 10:33N 39°26' W 000°19'  

Dump ship's entire track history